createdAt,value
2018-11-22T18:33:44.312Z,0
2018-11-22T18:33:45.533Z,24.312134
2018-11-22T18:33:46.736Z,24.312134
2018-11-22T18:33:47.960Z,24.332275
2018-11-22T18:33:49.222Z,24.302063
2018-11-22T18:33:50.409Z,24.312134
2018-11-22T18:33:51.602Z,24.302063
2018-11-22T18:33:52.860Z,24.302063
2018-11-22T18:33:54.082Z,24.302063
2018-11-22T18:33:55.365Z,24.291992
2018-11-22T18:33:56.543Z,24.291992
2018-11-22T18:33:57.764Z,24.271851
2018-11-22T18:33:58.955Z,24.271851
2018-11-22T18:34:00.157Z,24.271851
2018-11-22T18:34:01.346Z,24.271851
2018-11-22T18:34:02.570Z,24.271851
2018-11-22T18:34:03.812Z,24.26178
2018-11-22T18:34:05.042Z,24.26178
2018-11-22T18:34:06.251Z,24.241638
2018-11-22T18:34:07.464Z,24.26178
2018-11-22T18:34:08.647Z,24.241638
2018-11-22T18:34:09.848Z,24.26178
2018-11-22T18:34:11.052Z,24.241638
2018-11-22T18:34:12.350Z,24.241638
2018-11-22T18:34:13.568Z,24.211426
2018-11-22T18:34:14.821Z,24.241638
2018-11-22T18:34:16.027Z,24.231567
2018-11-22T18:34:17.287Z,24.231567
2018-11-22T18:34:18.449Z,24.211426
2018-11-22T18:34:19.671Z,24.231567
2018-11-22T18:34:20.866Z,24.211426
2018-11-22T18:34:22.087Z,24.211426
2018-11-22T18:34:23.324Z,24.191284
2018-11-22T18:34:24.515Z,24.211426
2018-11-22T18:34:25.723Z,24.181213
2018-11-22T18:34:26.916Z,24.191284
2018-11-22T18:34:28.128Z,24.181213
2018-11-22T18:34:29.323Z,24.181213
2018-11-22T18:34:30.511Z,24.161072
2018-11-22T18:34:31.750Z,24.161072
2018-11-22T18:34:32.926Z,24.151001
2018-11-22T18:34:34.168Z,24.151001
2018-11-22T18:34:35.375Z,24.151001
2018-11-22T18:34:36.575Z,24.14093
2018-11-22T18:34:37.768Z,24.14093
2018-11-22T18:34:39.054Z,24.14093
2018-11-22T18:34:40.246Z,24.120789
2018-11-22T18:34:41.490Z,24.110718
2018-11-22T18:34:42.704Z,24.110718
2018-11-22T18:34:43.947Z,24.110718
2018-11-22T18:34:45.175Z,24.090576
2018-11-22T18:34:46.366Z,24.090576
2018-11-22T18:34:47.604Z,24.080505
2018-11-22T18:34:48.799Z,24.080505
2018-11-22T18:34:50.003Z,24.060364
2018-11-22T18:34:51.206Z,24.060364
2018-11-22T18:34:52.422Z,24.050293
2018-11-22T18:34:53.659Z,24.040222
2018-11-22T18:34:54.876Z,24.050293
2018-11-22T18:34:56.053Z,24.080505
2018-11-22T18:34:57.267Z,24.090576
2018-11-22T18:34:58.459Z,24.151001
2018-11-22T18:34:59.666Z,24.362488
2018-11-22T18:35:00.888Z,24.604187
2018-11-22T18:35:02.113Z,24.835815
2018-11-22T18:35:03.326Z,25.137939
2018-11-22T18:35:04.517Z,25.440063
2018-11-22T18:35:05.762Z,25.752258
2018-11-22T18:35:06.969Z,26.034241
2018-11-22T18:35:08.172Z,26.336365
2018-11-22T18:35:09.366Z,26.608276
2018-11-22T18:35:10.643Z,26.870117
2018-11-22T18:35:11.898Z,27.131958
2018-11-22T18:35:13.126Z,27.393799
2018-11-22T18:35:14.332Z,27.645569
2018-11-22T18:35:16.534Z,27.857056
2018-11-22T18:35:17.772Z,28.239746
2018-11-22T18:35:18.992Z,28.451233
2018-11-22T18:35:20.232Z,28.642578
2018-11-22T18:35:21.443Z,28.823853
2018-11-22T18:35:22.653Z,28.995056
2018-11-22T18:35:23.858Z,29.136047
2018-11-22T18:35:25.076Z,29.317322
2018-11-22T18:35:26.237Z,29.468384
2018-11-22T18:35:27.447Z,29.569092
2018-11-22T18:35:28.713Z,29.730225
2018-11-22T18:35:29.872Z,29.861145
2018-11-22T18:35:31.087Z,29.992065
2018-11-22T18:35:32.283Z,30.112915
2018-11-22T18:35:33.486Z,30.223694
2018-11-22T18:35:34.694Z,30.344543
2018-11-22T18:35:35.914Z,30.455322
2018-11-22T18:35:37.136Z,30.55603
2018-11-22T18:35:38.388Z,30.666809
2018-11-22T18:35:39.572Z,30.777588
2018-11-22T18:35:40.785Z,30.878296
2018-11-22T18:35:42.004Z,30.958862
2018-11-22T18:35:43.208Z,31.039429
2018-11-22T18:35:44.427Z,31.119995
2018-11-22T18:35:45.634Z,31.200562
2018-11-22T18:35:46.863Z,31.30127
2018-11-22T18:35:48.080Z,31.381836
2018-11-22T18:35:49.299Z,31.462402
2018-11-22T18:35:50.525Z,31.532898
2018-11-22T18:35:51.748Z,31.603394
2018-11-22T18:35:52.972Z,31.68396
2018-11-22T18:35:54.180Z,31.754456
2018-11-22T18:35:55.365Z,31.835022
2018-11-22T18:35:56.577Z,31.875305
2018-11-22T18:35:57.773Z,31.945801
2018-11-22T18:35:58.993Z,32.016296
2018-11-22T18:36:00.207Z,32.086792
2018-11-22T18:36:01.387Z,32.127075
2018-11-22T18:36:02.606Z,32.1875
2018-11-22T18:36:03.814Z,32.247925
2018-11-22T18:36:05.027Z,32.247925
2018-11-22T18:36:06.240Z,32.247925
2018-11-22T18:36:07.456Z,32.247925
2018-11-22T18:36:08.669Z,32.217712
2018-11-22T18:36:09.882Z,32.1875
2018-11-22T18:36:11.077Z,32.117004
2018-11-22T18:36:12.280Z,32.086792
2018-11-22T18:36:13.501Z,32.016296
2018-11-22T18:36:14.669Z,31.965942
2018-11-22T18:36:15.856Z,31.895447
2018-11-22T18:36:17.089Z,31.835022
2018-11-22T18:36:18.278Z,31.754456
2018-11-22T18:36:19.483Z,31.68396
2018-11-22T18:36:20.698Z,31.623535
2018-11-22T18:36:21.907Z,31.542969
2018-11-22T18:36:23.097Z,31.492615
2018-11-22T18:36:24.267Z,31.412048
2018-11-22T18:36:25.452Z,31.351624
2018-11-22T18:36:26.672Z,31.30127
2018-11-22T18:36:27.911Z,31.230774
2018-11-22T18:36:29.135Z,31.190491
2018-11-22T18:36:30.339Z,31.130066
2018-11-22T18:36:31.532Z,31.069641
2018-11-22T18:36:32.787Z,31.029358
2018-11-22T18:36:34.051Z,30.968933
2018-11-22T18:36:35.251Z,30.908508
2018-11-22T18:36:36.432Z,30.858154
2018-11-22T18:36:37.629Z,30.787659
2018-11-22T18:36:38.854Z,30.747375
2018-11-22T18:36:40.099Z,30.666809
2018-11-22T18:36:41.283Z,30.626526
2018-11-22T18:36:42.519Z,30.566101
2018-11-22T18:36:43.721Z,30.505676
2018-11-22T18:36:45.001Z,30.445251
2018-11-22T18:36:46.231Z,30.384827
2018-11-22T18:36:47.452Z,30.324402
2018-11-22T18:36:48.691Z,30.263977
2018-11-22T18:36:49.873Z,30.213623
2018-11-22T18:36:51.079Z,30.153198
2018-11-22T18:36:52.301Z,30.082703
2018-11-22T18:36:53.527Z,30.032349
2018-11-22T18:36:54.731Z,29.992065
2018-11-22T18:36:55.931Z,29.911499
2018-11-22T18:36:57.173Z,29.861145
2018-11-22T18:36:58.389Z,29.810791
2018-11-22T18:36:59.569Z,29.730225
2018-11-22T18:37:00.803Z,29.689941
2018-11-22T18:37:01.996Z,29.619446
2018-11-22T18:37:03.196Z,29.54895
2018-11-22T18:37:04.447Z,29.478455
2018-11-22T18:37:05.658Z,29.438171
2018-11-22T18:37:06.896Z,29.367676
2018-11-22T18:37:08.093Z,29.317322
2018-11-22T18:37:09.295Z,29.246826
2018-11-22T18:37:10.512Z,29.196472
2018-11-22T18:37:11.732Z,29.115906
2018-11-22T18:37:12.954Z,29.065552
2018-11-22T18:37:14.148Z,28.995056
2018-11-22T18:37:15.348Z,28.944702
2018-11-22T18:37:16.591Z,28.894348
2018-11-22T18:37:17.822Z,28.874207
2018-11-22T18:37:19.143Z,28.773499
2018-11-22T18:37:20.331Z,28.733215
2018-11-22T18:37:21.555Z,28.672791
2018-11-22T18:37:22.804Z,28.622437
2018-11-22T18:37:24.005Z,28.572083
2018-11-22T18:37:25.241Z,28.521729
2018-11-22T18:37:26.442Z,28.461304
2018-11-22T18:37:27.652Z,28.431091
2018-11-22T18:37:28.856Z,28.350525
2018-11-22T18:37:30.084Z,28.320312
2018-11-22T18:37:31.273Z,28.249817
2018-11-22T18:37:32.481Z,28.209534
2018-11-22T18:37:33.698Z,28.179321
2018-11-22T18:37:34.907Z,28.128967
2018-11-22T18:37:36.095Z,28.078613
2018-11-22T18:37:37.322Z,28.028259
2018-11-22T18:37:38.530Z,27.987976
2018-11-22T18:37:39.836Z,27.947693
2018-11-22T18:37:41.046Z,27.897339
2018-11-22T18:37:42.266Z,27.857056
2018-11-22T18:37:43.464Z,27.806702
2018-11-22T18:37:44.669Z,27.776489
2018-11-22T18:37:45.875Z,27.716064
2018-11-22T18:37:47.112Z,27.685852
2018-11-22T18:37:48.353Z,27.625427
2018-11-22T18:37:49.570Z,27.605286
2018-11-22T18:37:50.788Z,27.575073
2018-11-22T18:37:52.012Z,27.524719
2018-11-22T18:37:53.220Z,27.464294
2018-11-22T18:37:54.419Z,27.454224
2018-11-22T18:37:55.634Z,27.393799
2018-11-22T18:37:56.877Z,27.353516
2018-11-22T18:37:58.103Z,27.333374
2018-11-22T18:37:59.300Z,27.28302
2018-11-22T18:38:00.509Z,27.252808
2018-11-22T18:38:02.721Z,27.232666
2018-11-22T18:38:03.896Z,27.16217
2018-11-22T18:38:05.111Z,27.131958
2018-11-22T18:38:06.353Z,27.111816
2018-11-22T18:38:07.542Z,27.081604
2018-11-22T18:38:08.743Z,27.03125
2018-11-22T18:38:09.944Z,27.021179
2018-11-22T18:38:11.146Z,26.980896
2018-11-22T18:38:12.372Z,26.970825
2018-11-22T18:38:13.605Z,26.930542
2018-11-22T18:38:14.789Z,26.90033
2018-11-22T18:38:16.045Z,26.870117
2018-11-22T18:38:17.214Z,26.860046
2018-11-22T18:38:18.447Z,26.809692
2018-11-22T18:38:19.636Z,26.789551
2018-11-22T18:38:20.840Z,26.759338
2018-11-22T18:38:22.025Z,26.749268
2018-11-22T18:38:23.236Z,26.708984
2018-11-22T18:38:24.462Z,26.678772
2018-11-22T18:38:25.672Z,26.64856
2018-11-22T18:38:26.889Z,26.638489
2018-11-22T18:38:28.104Z,26.588135
2018-11-22T18:38:29.298Z,26.588135
2018-11-22T18:38:30.564Z,26.557922
2018-11-22T18:38:31.760Z,26.52771
2018-11-22T18:38:32.967Z,26.497498
2018-11-22T18:38:34.157Z,26.467285
2018-11-22T18:38:35.376Z,26.457214
2018-11-22T18:38:36.592Z,26.437073
2018-11-22T18:38:37.817Z,26.40686
2018-11-22T18:38:39.032Z,26.376648
2018-11-22T18:38:40.259Z,26.356506
2018-11-22T18:38:41.456Z,26.336365
2018-11-22T18:38:42.679Z,26.316223
2018-11-22T18:38:43.884Z,26.286011
2018-11-22T18:38:45.076Z,26.27594
2018-11-22T18:38:46.282Z,26.27594
2018-11-22T18:38:47.472Z,26.235657
2018-11-22T18:38:48.688Z,26.225586
2018-11-22T18:38:49.909Z,26.205444
2018-11-22T18:38:51.126Z,26.205444
2018-11-22T18:38:52.338Z,26.195374
2018-11-22T18:38:53.563Z,26.195374
2018-11-22T18:38:54.778Z,26.195374
2018-11-22T18:38:55.997Z,26.185303
2018-11-22T18:38:57.227Z,26.165161
2018-11-22T18:38:58.448Z,26.195374
2018-11-22T18:38:59.719Z,26.185303
2018-11-22T18:39:00.923Z,26.165161
2018-11-22T18:39:02.130Z,26.165161
2018-11-22T18:39:03.309Z,26.165161
2018-11-22T18:39:04.574Z,26.134949
2018-11-22T18:39:05.722Z,26.15509
2018-11-22T18:39:06.923Z,26.124878
2018-11-22T18:39:08.128Z,26.134949
2018-11-22T18:39:09.325Z,26.124878
2018-11-22T18:39:10.525Z,26.134949
2018-11-22T18:39:11.711Z,26.124878
2018-11-22T18:39:12.918Z,26.165161
2018-11-22T18:39:14.131Z,26.15509
2018-11-22T18:39:15.324Z,26.15509
2018-11-22T18:39:16.521Z,26.15509
2018-11-22T18:39:17.738Z,26.185303
2018-11-22T18:39:18.941Z,26.195374
2018-11-22T18:39:20.129Z,26.195374
2018-11-22T18:39:21.335Z,26.205444
2018-11-22T18:39:22.562Z,26.235657
2018-11-22T18:39:23.762Z,26.265869
2018-11-22T18:39:25.027Z,26.286011
2018-11-22T18:39:26.187Z,26.306152
2018-11-22T18:39:27.371Z,26.316223
2018-11-22T18:39:28.590Z,26.336365
2018-11-22T18:39:29.841Z,26.346436
2018-11-22T18:39:31.031Z,26.386719
2018-11-22T18:39:32.215Z,26.40686
2018-11-22T18:39:33.466Z,26.437073
2018-11-22T18:39:34.686Z,26.467285
2018-11-22T18:39:35.980Z,26.497498
2018-11-22T18:39:37.194Z,26.507568
2018-11-22T18:39:38.408Z,26.52771
2018-11-22T18:39:39.607Z,26.567993
2018-11-22T18:39:40.867Z,26.567993
2018-11-22T18:39:42.096Z,26.598206
2018-11-22T18:39:43.282Z,26.608276
2018-11-22T18:39:44.469Z,26.638489
2018-11-22T18:39:45.744Z,26.638489
2018-11-22T18:39:46.935Z,26.65863
2018-11-22T18:39:48.173Z,26.678772
2018-11-22T18:39:49.359Z,26.678772
2018-11-22T18:39:50.578Z,26.65863
2018-11-22T18:39:51.782Z,26.65863
2018-11-22T18:39:52.984Z,26.678772
2018-11-22T18:39:54.183Z,26.688843
2018-11-22T18:39:55.407Z,26.708984
2018-11-22T18:39:56.614Z,26.708984
2018-11-22T18:39:57.796Z,26.708984
2018-11-22T18:39:59.048Z,26.688843
2018-11-22T18:40:00.234Z,26.719055
2018-11-22T18:40:01.470Z,26.719055
2018-11-22T18:40:02.661Z,26.719055
2018-11-22T18:40:03.890Z,26.749268
2018-11-22T18:40:05.136Z,26.719055
2018-11-22T18:40:06.356Z,26.749268
2018-11-22T18:40:07.547Z,26.759338
2018-11-22T18:40:08.751Z,26.77948
2018-11-22T18:40:09.968Z,26.789551
2018-11-22T18:40:11.152Z,26.829834
2018-11-22T18:40:12.343Z,26.829834
2018-11-22T18:40:13.561Z,26.839905
2018-11-22T18:40:14.749Z,26.860046
2018-11-22T18:40:15.989Z,26.880188
2018-11-22T18:40:17.181Z,26.880188
2018-11-22T18:40:18.375Z,26.90033
2018-11-22T18:40:19.578Z,26.90033
2018-11-22T18:40:20.780Z,26.90033
2018-11-22T18:40:21.985Z,26.9104
2018-11-22T18:40:23.175Z,26.9104
2018-11-22T18:40:24.381Z,26.9104
2018-11-22T18:40:25.626Z,26.9104
2018-11-22T18:40:26.891Z,26.9104
2018-11-22T18:40:28.037Z,26.930542
2018-11-22T18:40:29.284Z,26.9104
2018-11-22T18:40:30.504Z,26.90033
2018-11-22T18:40:31.727Z,26.90033
2018-11-22T18:40:32.947Z,26.90033
2018-11-22T18:40:34.151Z,26.860046
2018-11-22T18:40:35.391Z,26.860046
2018-11-22T18:40:36.639Z,26.839905
2018-11-22T18:40:37.803Z,26.839905
2018-11-22T18:40:39.034Z,26.829834
2018-11-22T18:40:40.249Z,26.809692
2018-11-22T18:40:41.467Z,26.789551
2018-11-22T18:40:42.689Z,26.77948
2018-11-22T18:40:43.907Z,26.759338
2018-11-22T18:40:45.094Z,26.749268
2018-11-22T18:40:46.330Z,26.729126
2018-11-22T18:40:47.545Z,26.688843
2018-11-22T18:40:48.725Z,26.678772
2018-11-22T18:40:49.932Z,26.678772
2018-11-22T18:40:51.134Z,26.65863
2018-11-22T18:40:52.340Z,26.638489
2018-11-22T18:40:53.541Z,26.598206
2018-11-22T18:40:54.748Z,26.598206
2018-11-22T18:40:55.939Z,26.557922
2018-11-22T18:40:57.160Z,26.557922
2018-11-22T18:40:58.368Z,26.52771
2018-11-22T18:40:59.600Z,26.52771
2018-11-22T18:41:01.397Z,26.487427
2018-11-22T18:41:03.021Z,26.487427
2018-11-22T18:41:04.215Z,26.437073
2018-11-22T18:41:05.440Z,26.437073
2018-11-22T18:41:06.638Z,26.40686
2018-11-22T18:41:07.832Z,26.40686
2018-11-22T18:41:09.048Z,26.376648
2018-11-22T18:41:10.229Z,26.356506
2018-11-22T18:41:11.472Z,26.346436
2018-11-22T18:41:12.673Z,26.316223
2018-11-22T18:41:13.871Z,26.316223
2018-11-22T18:41:15.078Z,26.286011
2018-11-22T18:41:16.307Z,26.27594
2018-11-22T18:41:17.504Z,26.265869
2018-11-22T18:41:18.704Z,26.235657
2018-11-22T18:41:19.927Z,26.205444
2018-11-22T18:41:21.111Z,26.195374
2018-11-22T18:41:23.307Z,26.185303
2018-11-22T18:41:24.500Z,26.134949
2018-11-22T18:41:25.699Z,26.134949
2018-11-22T18:41:26.901Z,26.094666
2018-11-22T18:41:28.090Z,26.094666
2018-11-22T18:41:29.308Z,26.064453
2018-11-22T18:41:30.504Z,26.044312
2018-11-22T18:41:31.718Z,26.014099
2018-11-22T18:41:33.020Z,26.014099
2018-11-22T18:41:34.178Z,25.983887
2018-11-22T18:41:35.404Z,25.963745
2018-11-22T18:41:36.627Z,25.963745
2018-11-22T18:41:37.869Z,25.933533
2018-11-22T18:41:39.041Z,25.90332
2018-11-22T18:41:40.244Z,25.90332
2018-11-22T18:41:41.490Z,25.863037
2018-11-22T18:41:42.667Z,25.852966
2018-11-22T18:41:43.896Z,25.832825
2018-11-22T18:41:45.071Z,25.822754
2018-11-22T18:41:46.292Z,25.792542
2018-11-22T18:41:47.534Z,25.782471
2018-11-22T18:41:48.788Z,25.762329
2018-11-22T18:41:50.006Z,25.752258
2018-11-22T18:41:51.231Z,25.742188
2018-11-22T18:41:52.485Z,25.722046
2018-11-22T18:41:53.662Z,25.711975
2018-11-22T18:41:54.872Z,25.691833
2018-11-22T18:41:56.058Z,25.671692
2018-11-22T18:41:57.277Z,25.641479
2018-11-22T18:41:58.488Z,25.641479
2018-11-22T18:41:59.671Z,25.631409
2018-11-22T18:42:00.873Z,25.611267
2018-11-22T18:42:02.072Z,25.601196
2018-11-22T18:42:04.272Z,25.591125
2018-11-22T18:42:05.469Z,25.570984
2018-11-22T18:42:06.697Z,25.540771
2018-11-22T18:42:07.925Z,25.540771
2018-11-22T18:42:09.114Z,25.510559
2018-11-22T18:42:10.308Z,25.480347
2018-11-22T18:42:11.540Z,25.490417
2018-11-22T18:42:12.713Z,25.460205
2018-11-22T18:42:13.918Z,25.460205
2018-11-22T18:42:15.129Z,25.450134
2018-11-22T18:42:16.316Z,25.419922
2018-11-22T18:42:17.531Z,25.419922
2018-11-22T18:42:18.728Z,25.409851
2018-11-22T18:42:19.916Z,25.409851
2018-11-22T18:42:21.106Z,25.389709
2018-11-22T18:42:22.330Z,25.379639
2018-11-22T18:42:23.530Z,25.359497
2018-11-22T18:42:24.733Z,25.349426
2018-11-22T18:42:25.914Z,25.339355
2018-11-22T18:42:27.196Z,25.309143
2018-11-22T18:42:28.424Z,25.299072
2018-11-22T18:42:29.653Z,25.289001
2018-11-22T18:42:30.881Z,25.289001
2018-11-22T18:42:32.087Z,25.26886
2018-11-22T18:42:33.308Z,25.258789
2018-11-22T18:42:34.565Z,25.289001
2018-11-22T18:42:35.801Z,25.309143
2018-11-22T18:42:37.016Z,25.299072
2018-11-22T18:42:38.226Z,25.309143
2018-11-22T18:42:39.431Z,25.309143
2018-11-22T18:42:40.634Z,25.309143
2018-11-22T18:42:41.850Z,25.339355
2018-11-22T18:42:43.069Z,25.349426
2018-11-22T18:42:44.264Z,25.349426
2018-11-22T18:42:45.462Z,25.349426
2018-11-22T18:42:46.673Z,25.359497
2018-11-22T18:42:47.879Z,25.379639
2018-11-22T18:42:49.075Z,25.389709
2018-11-22T18:42:50.288Z,25.389709
2018-11-22T18:42:51.519Z,25.389709
2018-11-22T18:42:52.741Z,25.409851
2018-11-22T18:42:53.946Z,25.409851
2018-11-22T18:42:55.148Z,25.389709
2018-11-22T18:42:56.373Z,25.409851
2018-11-22T18:42:57.577Z,25.409851
2018-11-22T18:42:58.813Z,25.419922
2018-11-22T18:43:00.010Z,25.409851
2018-11-22T18:43:01.242Z,25.419922
2018-11-22T18:43:02.430Z,25.419922
2018-11-22T18:43:03.645Z,25.419922
2018-11-22T18:43:04.873Z,25.419922
2018-11-22T18:43:06.114Z,25.419922
2018-11-22T18:43:07.327Z,25.409851
2018-11-22T18:43:08.539Z,25.419922
2018-11-22T18:43:09.742Z,25.409851
2018-11-22T18:43:10.986Z,25.409851
2018-11-22T18:43:12.178Z,25.409851
2018-11-22T18:43:13.378Z,25.409851
2018-11-22T18:43:14.577Z,25.409851
2018-11-22T18:43:15.795Z,25.409851
2018-11-22T18:43:17.000Z,25.389709
2018-11-22T18:43:18.255Z,25.419922
2018-11-22T18:43:19.539Z,25.389709
2018-11-22T18:43:20.748Z,25.389709
2018-11-22T18:43:21.939Z,25.389709
2018-11-22T18:43:23.172Z,25.389709
2018-11-22T18:43:24.380Z,25.389709
2018-11-22T18:43:25.585Z,25.409851
2018-11-22T18:43:26.793Z,25.389709
2018-11-22T18:43:27.986Z,25.389709
2018-11-22T18:43:29.177Z,25.379639
2018-11-22T18:43:30.402Z,25.379639
2018-11-22T18:43:31.604Z,25.379639
2018-11-22T18:43:35.321Z,25.379639
2018-11-22T18:43:35.370Z,25.379639
2018-11-22T18:43:36.228Z,25.379639
2018-11-22T18:43:37.482Z,25.379639
2018-11-22T18:43:38.688Z,25.379639
2018-11-22T18:43:39.870Z,25.359497
2018-11-22T18:43:41.090Z,25.379639
2018-11-22T18:43:42.311Z,25.359497
2018-11-22T18:43:43.550Z,25.379639
2018-11-22T18:43:45.771Z,25.359497
2018-11-22T18:43:46.972Z,25.349426
2018-11-22T18:43:48.189Z,25.339355
2018-11-22T18:43:49.441Z,25.349426
2018-11-22T18:43:50.687Z,25.309143
2018-11-22T18:43:51.903Z,25.339355
2018-11-22T18:43:53.122Z,25.309143
2018-11-22T18:43:54.325Z,25.309143
2018-11-22T18:43:55.556Z,25.299072
2018-11-22T18:43:56.757Z,25.299072
2018-11-22T18:43:57.976Z,25.289001
2018-11-22T18:43:59.192Z,25.289001
2018-11-22T18:44:00.414Z,25.289001
2018-11-22T18:44:01.622Z,25.26886
2018-11-22T18:44:02.845Z,25.26886
2018-11-22T18:44:04.069Z,25.258789
2018-11-22T18:44:05.256Z,25.258789
2018-11-22T18:44:06.448Z,25.238647
2018-11-22T18:44:07.669Z,25.238647
2018-11-22T18:44:08.881Z,25.238647
2018-11-22T18:44:10.112Z,25.238647
2018-11-22T18:44:11.335Z,25.228577
2018-11-22T18:44:12.552Z,25.228577
2018-11-22T18:44:13.768Z,25.218506
2018-11-22T18:44:14.975Z,25.218506
2018-11-22T18:44:16.199Z,25.218506
2018-11-22T18:44:17.432Z,25.198364
2018-11-22T18:44:18.661Z,25.188293
2018-11-22T18:44:19.861Z,25.218506
2018-11-22T18:44:21.102Z,25.218506
2018-11-22T18:44:22.300Z,25.218506
2018-11-22T18:44:23.504Z,25.228577
2018-11-22T18:44:24.711Z,25.228577
2018-11-22T18:44:25.930Z,25.228577
2018-11-22T18:44:27.150Z,25.228577
2018-11-22T18:44:28.336Z,25.238647
2018-11-22T18:44:29.540Z,25.228577
2018-11-22T18:44:30.741Z,25.258789
2018-11-22T18:44:31.976Z,25.238647
2018-11-22T18:44:33.196Z,25.258789
2018-11-22T18:44:34.414Z,25.258789
2018-11-22T18:44:35.631Z,25.289001
2018-11-22T18:44:36.848Z,25.289001
2018-11-22T18:44:38.046Z,25.289001
2018-11-22T18:44:39.252Z,25.289001
2018-11-22T18:44:40.437Z,25.299072
2018-11-22T18:44:41.634Z,25.289001
2018-11-22T18:44:42.867Z,25.309143
2018-11-22T18:44:44.071Z,25.339355
2018-11-22T18:44:45.272Z,25.299072
2018-11-22T18:44:46.535Z,25.309143
2018-11-22T18:44:47.756Z,25.339355
2018-11-22T18:44:48.997Z,25.309143
2018-11-22T18:44:50.210Z,25.339355
2018-11-22T18:44:51.413Z,25.309143
2018-11-22T18:44:52.629Z,25.349426
2018-11-22T18:44:53.839Z,25.339355
2018-11-22T18:44:55.029Z,25.339355
2018-11-22T18:44:56.252Z,25.339355
2018-11-22T18:44:57.463Z,25.349426
2018-11-22T18:44:58.648Z,25.339355
2018-11-22T18:44:59.863Z,25.359497
2018-11-22T18:45:01.098Z,25.349426
2018-11-22T18:45:02.354Z,25.359497
2018-11-22T18:45:03.571Z,25.359497
2018-11-22T18:45:04.834Z,25.359497
2018-11-22T18:45:06.048Z,25.379639
2018-11-22T18:45:07.319Z,25.359497
2018-11-22T18:45:08.531Z,25.359497
2018-11-22T18:45:09.786Z,25.349426
2018-11-22T18:45:10.939Z,25.349426
2018-11-22T18:45:12.183Z,25.339355
2018-11-22T18:45:13.393Z,25.339355
2018-11-22T18:45:14.628Z,25.339355
2018-11-22T18:45:15.874Z,25.339355
2018-11-22T18:45:17.050Z,25.339355
2018-11-22T18:45:18.295Z,25.299072
2018-11-22T18:45:19.515Z,25.299072
2018-11-22T18:45:20.726Z,25.299072
2018-11-22T18:45:22.936Z,25.299072
2018-11-22T18:45:24.168Z,25.289001
2018-11-22T18:45:25.359Z,25.299072
2018-11-22T18:45:26.596Z,25.289001
2018-11-22T18:45:27.836Z,25.289001
2018-11-22T18:45:29.036Z,25.26886
2018-11-22T18:45:30.231Z,25.289001
2018-11-22T18:45:31.447Z,25.26886
2018-11-22T18:45:32.639Z,25.289001
2018-11-22T18:45:33.851Z,25.26886
2018-11-22T18:45:35.070Z,25.258789
2018-11-22T18:45:36.275Z,25.26886
2018-11-22T18:45:37.513Z,25.258789
2018-11-22T18:45:38.719Z,25.258789
2018-11-22T18:45:40.005Z,25.258789
2018-11-22T18:45:41.232Z,25.238647
2018-11-22T18:45:42.412Z,25.258789
2018-11-22T18:45:44.955Z,25.258789
2018-11-22T18:45:45.994Z,25.238647
2018-11-22T18:45:47.197Z,25.238647
2018-11-22T18:45:48.420Z,25.238647
2018-11-22T18:45:49.603Z,25.228577
2018-11-22T18:45:50.863Z,25.228577
2018-11-22T18:45:52.077Z,25.228577
2018-11-22T18:45:53.290Z,25.228577
2018-11-22T18:45:55.479Z,25.218506
2018-11-22T18:45:56.701Z,25.228577
2018-11-22T18:45:57.912Z,25.218506
2018-11-22T18:45:59.143Z,25.198364
2018-11-22T18:46:00.349Z,25.198364
2018-11-22T18:46:01.576Z,25.218506
2018-11-22T18:46:02.772Z,25.198364
2018-11-22T18:46:04.001Z,25.198364
2018-11-22T18:46:05.194Z,25.188293
2018-11-22T18:46:06.420Z,25.198364
2018-11-22T18:46:07.628Z,25.188293
2018-11-22T18:46:08.840Z,25.198364
2018-11-22T18:46:10.056Z,25.168152
2018-11-22T18:46:11.281Z,25.198364
2018-11-22T18:46:12.468Z,25.168152
2018-11-22T18:46:13.690Z,25.198364
2018-11-22T18:46:14.872Z,25.188293
2018-11-22T18:46:16.099Z,25.198364
2018-11-22T18:46:17.302Z,25.168152
2018-11-22T18:46:18.545Z,25.168152
2018-11-22T18:46:19.762Z,25.168152
2018-11-22T18:46:20.973Z,25.188293
2018-11-22T18:46:22.206Z,25.168152
2018-11-22T18:46:23.404Z,25.188293
2018-11-22T18:46:24.611Z,25.168152
2018-11-22T18:46:25.803Z,25.188293
2018-11-22T18:46:27.023Z,25.168152
2018-11-22T18:46:28.224Z,25.188293
2018-11-22T18:46:29.446Z,25.168152
2018-11-22T18:46:30.664Z,25.188293
2018-11-22T18:46:31.895Z,25.188293
2018-11-22T18:46:33.139Z,25.188293
2018-11-22T18:46:34.357Z,25.188293
2018-11-22T18:46:35.564Z,25.188293
2018-11-22T18:46:36.795Z,25.188293
2018-11-22T18:46:38.036Z,25.188293
2018-11-22T18:46:39.282Z,25.168152
2018-11-22T18:46:40.506Z,25.188293
2018-11-22T18:46:41.693Z,25.168152
2018-11-22T18:46:42.951Z,25.188293
2018-11-22T18:46:44.161Z,25.188293
2018-11-22T18:46:45.386Z,25.168152
2018-11-22T18:46:46.607Z,25.158081
2018-11-22T18:46:47.817Z,25.168152
2018-11-22T18:46:49.018Z,25.158081
2018-11-22T18:46:50.243Z,25.158081
2018-11-22T18:46:51.446Z,25.158081
2018-11-22T18:46:52.637Z,25.158081
2018-11-22T18:46:53.837Z,25.137939
2018-11-22T18:46:55.051Z,25.137939
2018-11-22T18:46:56.263Z,25.137939
2018-11-22T18:46:57.459Z,25.137939
2018-11-22T18:46:58.857Z,25.117798
2018-11-22T18:46:59.866Z,25.117798
2018-11-22T18:47:01.092Z,25.107727
2018-11-22T18:47:02.273Z,25.117798
2018-11-22T18:47:03.529Z,25.107727
2018-11-22T18:47:04.770Z,25.107727
2018-11-22T18:47:05.990Z,25.087585
2018-11-22T18:47:07.210Z,25.087585
2018-11-22T18:47:08.445Z,25.077515
2018-11-22T18:47:09.697Z,25.077515
2018-11-22T18:47:10.871Z,25.067444
2018-11-22T18:47:12.094Z,25.077515
2018-11-22T18:47:13.293Z,25.047302
2018-11-22T18:47:14.518Z,25.037231
2018-11-22T18:47:15.711Z,25.037231
2018-11-22T18:47:16.948Z,25.067444
2018-11-22T18:47:18.204Z,25.047302
2018-11-22T18:47:19.411Z,25.037231
2018-11-22T18:47:20.668Z,25.047302
2018-11-22T18:47:21.871Z,25.037231
2018-11-22T18:47:23.109Z,25.037231
2018-11-22T18:47:24.336Z,25.047302
2018-11-22T18:47:25.550Z,25.037231
2018-11-22T18:47:26.740Z,25.037231
2018-11-22T18:47:27.948Z,25.047302
2018-11-22T18:47:29.146Z,25.047302
2018-11-22T18:47:30.377Z,25.047302
2018-11-22T18:47:31.571Z,25.037231
2018-11-22T18:47:32.801Z,25.047302
2018-11-22T18:47:34.013Z,25.037231
2018-11-22T18:47:35.220Z,25.037231
2018-11-22T18:47:36.441Z,25.037231
2018-11-22T18:47:37.674Z,25.037231
2018-11-22T18:47:38.896Z,25.037231
2018-11-22T18:47:40.168Z,25.047302
2018-11-22T18:47:41.412Z,25.067444
2018-11-22T18:47:42.607Z,25.067444
2018-11-22T18:47:43.850Z,25.077515
2018-11-22T18:47:45.070Z,25.077515
2018-11-22T18:47:46.308Z,25.117798
2018-11-22T18:47:47.549Z,25.158081